Time;durP1;ratioP1;P1;durP2;ratioP2;P2;SDS_P1;SDS_P2;PMS_P1;PMS_P2;Temp;Humidity;BMP_temperature;BMP_pressure;BME280_temperature;BME280_humidity;BME280_pressure;Samples;Min_cycle;Max_cycle;Signal;HPM_P1;HPM_P2
2022/06/26 00:04:52;;;;;;;2.65;0.50;;;;;;;;;;21087666;28;20256;-69
2022/06/26 00:14:55;;;;;;;0.65;0.50;;;;;;;;;;21087558;28;20584;-69
2022/06/26 00:24:57;;;;;;;0.65;0.30;;;;;;;;;;21051008;28;20280;-70
2022/06/26 00:34:58;;;;;;;0.40;0.35;;;;;;;;;;21029783;28;20201;-69
2022/06/26 00:45:00;;;;;;;0.40;0.30;;;;;;;;;;21045481;28;20275;-68
2022/06/26 00:55:03;;;;;;;0.52;0.30;;;;;;;;;;21066782;22;20563;-73
2022/06/26 01:05:05;;;;;;;0.80;0.40;;;;;;;;;;21109578;28;20220;-71
2022/06/26 01:15:08;;;;;;;0.57;0.30;;;23.30;99.90;;;;;;21117365;28;20206;-73
2022/06/26 01:25:10;;;;;;;1.00;0.35;;;;;;;;;;21129764;28;20216;-74
2022/06/26 01:35:12;;;;;;;0.40;0.30;;;;;;;;;;21132286;28;20576;-74
2022/06/26 01:45:23;;;;;;;2.70;0.50;;;;;;;;;;21137649;28;20634;-74
2022/06/26 01:55:25;;;;;;;0.85;0.30;;;;;;;;;;21120388;28;20276;-74
2022/06/26 02:05:31;;;;;;;0.75;0.30;;;;;;;;;;21120625;28;20224;-74
2022/06/26 02:15:34;;;;;;;0.30;0.30;;;;;;;;;;21135501;28;20224;-74
2022/06/26 02:25:37;;;;;;;0.40;0.35;;;;;;;;;;21118820;28;20219;-74
2022/06/26 02:35:39;;;;;;;1.00;0.40;;;;;;;;;;21130058;28;20205;-74
2022/06/26 02:45:41;;;;;;;1.20;0.40;;;;;;;;;;21118806;28;20222;-74
2022/06/26 02:55:43;;;;;;;1.55;0.40;;;21.20;99.90;;;;;;21116466;28;20224;-74
2022/06/26 03:05:48;;;;;;;0.52;0.40;;;;;;;;;;21134697;28;20756;-74
2022/06/26 03:15:50;;;;;;;0.52;0.38;;;;;;;;;;21117475;28;20587;-74
2022/06/26 03:25:54;;;;;;;0.98;0.55;;;;;;;;;;21133767;28;20237;-74
2022/06/26 03:35:56;;;;;;;0.47;0.40;;;;;;;;;;21120118;28;20208;-74
2022/06/26 03:45:58;;;;;;;0.70;0.40;;;22.00;99.90;;;;;;21148194;28;20232;-74
2022/06/26 03:56:03;;;;;;;0.95;0.50;;;;;;;;;;21131168;28;20260;-74
2022/06/26 04:06:04;;;;;;;0.40;0.40;;;;;;;;;;21164633;28;20235;-75
2022/06/26 04:16:11;;;;;;;0.68;0.55;;;;;;;;;;21146175;28;20545;-74
2022/06/26 04:26:19;;;;;;;0.52;0.40;;;;;;;;;;21128259;28;20229;-75
2022/06/26 04:36:22;;;;;;;0.65;0.40;;;;;;;;;;21143457;28;20207;-75
2022/06/26 04:46:26;;;;;;;0.55;0.40;;;;;;;;;;21142804;28;20611;-75
2022/06/26 04:56:30;;;;;;;0.30;0.30;;;;;;;;;;21137845;28;20281;-75
2022/06/26 05:06:34;;;;;;;0.70;0.40;;;;;;;;;;21137179;28;20280;-75
2022/06/26 05:16:54;;;;;;;0.47;0.40;;;;;;;;;;21141003;28;20252;-74
2022/06/26 05:27:07;;;;;;;0.30;0.30;;;;;;;;;;21139469;28;20256;-75
2022/06/26 05:37:09;;;;;;;0.30;0.30;;;;;;;;;;21141278;28;20203;-74
2022/06/26 05:47:13;;;;;;;0.32;0.30;;;;;;;;;;21121729;28;20780;-75
2022/06/26 05:57:17;;;;;;;0.60;0.45;;;;;;;;;;21154938;28;20224;-75
2022/06/26 06:07:37;;;;;;;0.35;0.35;;;;;;;;;;21132690;28;20217;-75
2022/06/26 06:17:42;;;;;;;0.55;0.30;;;;;;;;;;21078623;28;20679;-74
2022/06/26 06:27:45;;;;;;;0.28;0.28;;;;;;;;;;21104666;28;20234;-74
2022/06/26 06:37:51;;;;;;;0.52;0.30;;;;;;;;;;21135058;28;20215;-74
2022/06/26 06:47:53;;;;;;;0.30;0.30;;;;;;;;;;21117172;28;20279;-73
2022/06/26 06:58:13;;;;;;;0.30;0.25;;;;;;;;;;21109067;22;20242;-84
2022/06/26 07:08:16;;;;;;;0.30;0.20;;;;;;;;;;21044947;27;20219;-84
2022/06/26 07:18:18;;;;;;;0.30;0.30;;;;;;;;;;21069964;27;20689;-85
2022/06/26 07:28:21;;;;;;;1.95;0.25;;;;;;;;;;21035020;28;20235;-84
2022/06/26 07:38:22;;;;;;;0.60;0.50;;;;;;;;;;21065085;27;20220;-85
2022/06/26 07:48:25;;;;;;;0.50;0.30;;;;;;;;;;21065551;27;20225;-86
2022/06/26 07:58:30;;;;;;;0.20;0.20;;;;;;;;;;21050028;27;20277;-86
2022/06/26 08:08:32;;;;;;;0.30;0.30;;;;;;;;;;21049105;28;20226;-87
2022/06/26 08:18:34;;;;;;;0.95;0.40;;;;;;;;;;21032232;28;20195;-86
2022/06/26 08:28:37;;;;;;;2.60;0.47;;;;;;;;;;21058241;28;20477;-86
2022/06/26 08:38:39;;;;;;;0.22;0.22;;;;;;;;;;21035157;28;20223;-87
2022/06/26 08:48:45;;;;;;;0.30;0.30;;;;;;;;;;21001483;28;20230;-86
2022/06/26 08:59:20;;;;;;;0.43;0.30;;;;;;;;;;21043851;28;20220;-85
2022/06/26 09:09:31;;;;;;;0.65;0.30;;;;;;;;;;20924990;28;20301;-87
2022/06/26 09:19:43;;;;;;;0.30;0.30;;;;;;;;;;20961624;28;20212;-85
2022/06/26 09:29:50;;;;;;;2.70;0.30;;;;;;;;;;20976309;28;20292;-87
2022/06/26 09:40:00;;;;;;;0.47;0.30;;;;;;;;;;20976367;28;20208;-86
2022/06/26 09:50:07;;;;;;;0.20;0.20;;;;;;;;;;20977993;28;20223;-86
2022/06/26 10:00:12;;;;;;;0.52;0.40;;;;;;;;;;20977165;28;20235;-86
2022/06/26 10:10:20;;;;;;;2.22;0.30;;;;;;;;;;20973696;28;20225;-88
2022/06/26 10:20:25;;;;;;;0.63;0.40;;;;;;;;;;21044354;22;20688;-87
2022/06/26 10:30:31;;;;;;;0.52;0.40;;;;;;;;;;21123682;28;20713;-86
2022/06/26 10:51:00;;;;;;;0.70;0.30;;;;;;;;;;21157080;28;20217;-85
2022/06/26 11:01:06;;;;;;;0.43;0.25;;;;;;;;;;21156224;28;20289;-87
2022/06/26 11:11:14;;;;;;;0.50;0.40;;;;;;;;;;21139078;28;20229;-87
2022/06/26 11:21:19;;;;;;;0.20;0.20;;;;;;;;;;21136529;27;20258;-87
2022/06/26 11:31:24;;;;;;;0.30;0.30;;;;;;;;;;21137933;28;20283;-85
2022/06/26 11:41:29;;;;;;;0.40;0.30;;;;;;;;;;21152764;28;20265;-85
2022/06/26 11:51:40;;;;;;;0.55;0.30;;;;;;;;;;21118680;28;20234;-85
2022/06/26 12:02:27;;;;;;;0.30;0.30;;;;;;;;;;21132023;28;20687;-87
2022/06/26 12:13:23;;;;;;;0.52;0.30;;;;;;;;;;21117727;28;20275;-86
2022/06/26 12:23:32;;;;;;;0.45;0.30;;;;;;;;;;21106458;28;20222;-86
2022/06/26 12:33:48;;;;;;;0.88;0.30;;;;;;;;;;21132083;28;20282;-87
2022/06/26 12:44:02;;;;;;;0.30;0.30;;;;;;;;;;21129681;28;20266;-88
2022/06/26 12:54:49;;;;;;;0.38;0.30;;;;;;;;;;21137676;28;20209;-86
2022/06/26 13:05:04;;;;;;;0.82;0.40;;;;;;;;;;21036511;28;20276;-86
2022/06/26 13:26:49;;;;;;;0.30;0.30;;;;;;;;;;21059810;28;20881;-89
2022/06/26 13:36:54;;;;;;;0.25;0.20;;;;;;;;;;21070702;28;20634;-88
2022/06/26 13:47:00;;;;;;;0.20;0.20;;;;;;;;;;21080933;28;20250;-87
2022/06/26 13:57:06;;;;;;;0.30;0.30;;;;;;;;;;21107433;28;20212;-85
2022/06/26 14:07:11;;;;;;;0.45;0.30;;;;;;;;;;21013727;28;20227;-88
2022/06/26 14:17:17;;;;;;;0.55;0.40;;;;;;;;;;21047552;28;20256;-88
2022/06/26 14:27:26;;;;;;;0.68;0.30;;;;;;;;;;21136142;28;20226;-84
2022/06/26 14:37:35;;;;;;;0.20;0.20;;;;;;;;;;21071906;28;20224;-85
2022/06/26 14:47:42;;;;;;;1.30;0.50;;;;;;;;;;21115370;28;20575;-85
2022/06/26 14:58:00;;;;;;;0.20;0.20;;;;;;;;;;21114715;28;20211;-84
2022/06/26 15:08:02;;;;;;;0.38;0.30;;;;;;;;;;21113238;28;20227;-85
2022/06/26 15:18:04;;;;;;;0.32;0.30;;;;;;;;;;21078183;28;20272;-82
2022/06/26 15:28:30;;;;;;;0.75;0.30;;;27.50;99.90;;;;;;21114771;28;20609;-85
2022/06/26 15:38:32;;;;;;;1.02;0.40;;;;;;;;;;21159952;28;20272;-84
2022/06/26 15:48:34;;;;;;;0.50;0.30;;;;;;;;;;21134840;28;20292;-84
2022/06/26 15:58:36;;;;;;;0.40;0.30;;;;;;;;;;21077217;28;20272;-83
2022/06/26 16:08:41;;;;;;;0.50;0.50;;;;;;;;;;21113545;28;20226;-84
2022/06/26 16:18:43;;;;;;;0.30;0.30;;;;;;;;;;21063004;28;20260;-84
2022/06/26 16:29:00;;;;;;;0.65;0.40;;;;;;;;;;21132206;28;20228;-83
2022/06/26 16:39:02;;;;;;;0.70;0.40;;;;;;;;;;21025364;28;20284;-85
2022/06/26 16:49:05;;;;;;;0.30;0.30;;;;;;;;;;21060462;28;20227;-83
2022/06/26 16:59:07;;;;;;;0.98;0.32;;;;;;;;;;21054766;28;20265;-85
2022/06/26 17:09:09;;;;;;;1.05;0.50;;;;;;;;;;21085734;28;20235;-85
2022/06/26 17:19:11;;;;;;;0.30;0.30;;;;;;;;;;21056541;28;20214;-85
2022/06/26 17:29:15;;;;;;;0.80;0.47;;;;;;;;;;21096068;28;20572;-85
2022/06/26 17:39:17;;;;;;;0.47;0.30;;;;;;;;;;21101815;28;20961;-83
2022/06/26 17:49:19;;;;;;;1.63;0.52;;;;;;;;;;21113325;28;20271;-85
2022/06/26 17:59:24;;;;;;;0.40;0.32;;;;;;;;;;21138177;22;20318;-75
2022/06/26 18:09:27;;;;;;;1.58;0.40;;;;;;;;;;21017798;28;20276;-75
2022/06/26 18:19:29;;;;;;;1.60;0.80;;;;;;;;;;21002049;28;20219;-76
2022/06/26 18:29:31;;;;;;;0.32;0.30;;;;;;;;;;20989852;28;20212;-75
2022/06/26 18:39:33;;;;;;;2.08;0.40;;;;;;;;;;20986469;28;20196;-75
2022/06/26 18:49:35;;;;;;;0.35;0.30;;;;;;;;;;20982635;28;20597;-75
2022/06/26 18:59:37;;;;;;;0.32;0.25;;;;;;;;;;21070146;22;20230;-76
2022/06/26 19:09:39;;;;;;;0.38;0.30;;;;;;;;;;21167552;28;20305;-76
2022/06/26 19:19:43;;;;;;;0.30;0.30;;;25.80;99.90;;;;;;21167573;28;20200;-76
2022/06/26 19:29:45;;;;;;;0.40;0.30;;;25.80;99.90;;;;;;21166927;28;20216;-76
2022/06/26 19:39:47;;;;;;;0.40;0.30;;;;;;;;;;21131910;28;20206;-76
2022/06/26 20:00:11;;;;;;;1.95;0.45;;;;;;;;;;21164909;28;20242;-75
2022/06/26 20:10:12;;;;;;;1.13;0.50;;;;;;;;;;21106952;28;20676;-75
2022/06/26 20:20:14;;;;;;;0.80;0.40;;;;;;;;;;21126706;28;20235;-76
2022/06/26 20:30:16;;;;;;;0.47;0.30;;;;;;;;;;21170056;28;20355;-75
2022/06/26 20:40:18;;;;;;;0.88;0.50;;;;;;;;;;21169925;28;20255;-75
2022/06/26 20:50:20;;;;;;;1.75;0.40;;;;;;;;;;21102166;28;20231;-74
2022/06/26 21:00:22;;;;;;;0.68;0.52;;;;;;;;;;21070127;28;20277;-74
2022/06/26 21:10:26;;;;;;;0.30;0.30;;;;;;;;;;21061164;28;20763;-75
2022/06/26 21:20:29;;;;;;;1.10;0.40;;;;;;;;;;21060333;28;20236;-74
2022/06/26 21:30:31;;;;;;;0.60;0.40;;;;;;;;;;21081884;28;20268;-75
2022/06/26 21:40:32;;;;;;;1.60;0.75;;;;;;;;;;21072200;28;20230;-75
2022/06/26 21:50:34;;;;;;;1.17;0.55;;;;;;;;;;21069695;28;20224;-74
2022/06/26 22:00:37;;;;;;;1.63;0.52;;;;;;;;;;21097564;28;20227;-74
2022/06/26 22:10:39;;;;;;;1.50;0.40;;;;;;;;;;21164785;28;20247;-74
2022/06/26 22:20:41;;;;;;;0.80;0.50;;;;;;;;;;21170384;28;20210;-73
2022/06/26 22:30:43;;;;;;;0.43;0.40;;;;;;;;;;21153639;28;20217;-73
2022/06/26 22:40:44;;;;;;;1.52;0.60;;;;;;;;;;21171358;28;20622;-73
2022/06/26 22:50:46;;;;;;;0.47;0.30;;;;;;;;;;21168567;28;20705;-73
2022/06/26 23:00:48;;;;;;;0.75;0.40;;;;;;;;;;21143282;28;20782;-73
2022/06/26 23:10:59;;;;;;;0.57;0.40;;;;;;;;;;21172195;28;20214;-73
2022/06/26 23:21:00;;;;;;;1.08;0.60;;;;;;;;;;21168827;28;20204;-73
2022/06/26 23:31:02;;;;;;;1.10;0.55;;;;;;;;;;21128734;28;20271;-73
2022/06/26 23:41:04;;;;;;;0.88;0.40;;;;;;;;;;21156242;28;20247;-73
2022/06/26 23:51:06;;;;;;;0.88;0.60;;;;;;;;;;21174209;28;20217;-73
